Terminal Aerodrome Forecast
Issued by NWS La Crosse, WI

Home | Current Version | Previous Version | Text Only | Print | Product List | Glossary On
Versions: 1 2 3 4 5 6 7 8 9 10 11 12 13 14 15 16 17 18 19 20 21 22 23 24 25
000
FTUS43 KARX 221122
TAFLSE
TAF
KLSE 221122Z 2212/2312 VRB03KT P6SM OVC007
     FM221300 VRB03KT P6SM OVC012
     FM221500 VRB03KT P6SM BKN025
     FM221700 VRB03KT P6SM BKN035
     FM222100 VRB03KT P6SM SCT110=

USA.gov is the U.S. government's official web portal to all federal, state and local government web resources and services.